createdAt,value
2019-01-13T00:00:12.218Z,18.4
2019-01-13T00:01:10.276Z,18.39
2019-01-13T00:02:10.445Z,18.4
2019-01-13T00:03:10.223Z,18.39
2019-01-13T00:04:10.391Z,18.37
2019-01-13T00:05:11.485Z,18.39
2019-01-13T00:06:10.320Z,18.37
2019-01-13T00:07:12.242Z,18.39
2019-01-13T00:08:11.142Z,18.39
2019-01-13T00:09:10.331Z,18.36
2019-01-13T00:10:10.814Z,18.37
2019-01-13T00:11:10.397Z,18.36
2019-01-13T00:12:12.221Z,18.35
2019-01-13T00:13:11.074Z,18.35
2019-01-13T00:14:11.239Z,18.35
2019-01-13T00:15:10.381Z,18.35
2019-01-13T00:16:10.772Z,18.32
2019-01-13T00:17:10.324Z,18.32
2019-01-13T00:18:10.807Z,18.3
2019-01-13T00:19:10.588Z,18.32
2019-01-13T00:20:10.603Z,18.3
2019-01-13T00:21:10.511Z,18.3
2019-01-13T00:22:10.564Z,18.3
2019-01-13T00:23:10.333Z,18.32
2019-01-13T00:24:10.337Z,18.28
2019-01-13T00:25:10.193Z,18.3
2019-01-13T00:26:10.752Z,18.26
2019-01-13T00:27:10.688Z,18.29
2019-01-13T00:28:10.786Z,18.29
2019-01-13T00:29:10.592Z,18.29
2019-01-13T00:30:10.796Z,18.28
2019-01-13T00:31:10.632Z,18.28
2019-01-13T00:32:10.787Z,18.28
2019-01-13T00:33:10.427Z,18.28
2019-01-13T00:34:10.642Z,18.29
2019-01-13T00:35:10.583Z,18.25
2019-01-13T00:36:11.540Z,18.25
2019-01-13T00:37:10.349Z,18.25
2019-01-13T00:38:10.658Z,18.25
2019-01-13T00:39:10.449Z,18.23
2019-01-13T00:40:10.708Z,18.23
2019-01-13T00:41:10.835Z,18.22
2019-01-13T00:42:10.173Z,18.23
2019-01-13T00:43:10.770Z,18.22
2019-01-13T00:44:11.174Z,18.22
2019-01-13T00:45:10.148Z,18.23
2019-01-13T00:46:10.622Z,18.21
2019-01-13T00:47:12.299Z,18.21
2019-01-13T00:48:10.329Z,18.19
2019-01-13T00:49:10.616Z,18.19
2019-01-13T00:50:10.747Z,18.19
2019-01-13T00:51:10.200Z,18.21
2019-01-13T00:52:10.362Z,18.19
2019-01-13T00:53:10.174Z,18.18
2019-01-13T00:54:10.245Z,18.16
2019-01-13T00:55:10.429Z,18.18
2019-01-13T00:56:10.553Z,18.16
2019-01-13T00:57:12.083Z,18.16
2019-01-13T00:58:10.966Z,18.16
2019-01-13T00:59:12.164Z,18.16
2019-01-13T01:00:10.274Z,18.18
2019-01-13T01:01:11.017Z,18.15
2019-01-13T01:02:10.706Z,18.16
2019-01-13T01:03:10.796Z,18.15
2019-01-13T01:04:10.288Z,18.13
2019-01-13T01:05:10.413Z,18.15
2019-01-13T01:06:10.498Z,18.13
2019-01-13T01:07:10.733Z,18.13
2019-01-13T01:08:10.648Z,18.12
2019-01-13T01:09:10.482Z,18.11
2019-01-13T01:10:10.342Z,18.13
2019-01-13T01:11:10.776Z,18.09
2019-01-13T01:12:10.503Z,18.12
2019-01-13T01:13:10.371Z,18.09
2019-01-13T01:14:10.733Z,18.08
2019-01-13T01:15:10.571Z,18.09
2019-01-13T01:16:10.530Z,18.09
2019-01-13T01:17:10.376Z,18.08
2019-01-13T01:18:10.298Z,18.08
2019-01-13T01:19:10.646Z,18.07
2019-01-13T01:20:10.959Z,18.08
2019-01-13T01:21:10.519Z,18.08
2019-01-13T01:22:10.248Z,18.07
2019-01-13T01:23:10.439Z,18.08
2019-01-13T01:24:12.168Z,18.05
2019-01-13T01:25:10.386Z,18.07
2019-01-13T01:26:10.299Z,18.07
2019-01-13T01:27:10.564Z,18.02
2019-01-13T01:28:10.985Z,18.05
2019-01-13T01:29:10.166Z,18.04
2019-01-13T01:30:10.360Z,18.05
2019-01-13T01:31:10.738Z,18.05
2019-01-13T01:32:10.290Z,18.04
2019-01-13T01:33:10.386Z,18.04
2019-01-13T01:34:10.738Z,18.04
2019-01-13T01:35:10.525Z,18.02
2019-01-13T01:36:10.342Z,18.02
2019-01-13T01:37:10.165Z,18.02
2019-01-13T01:38:10.232Z,18
2019-01-13T01:39:11.070Z,18
2019-01-13T01:40:10.259Z,18.01
2019-01-13T01:41:10.231Z,17.98
2019-01-13T01:42:10.771Z,18
2019-01-13T01:43:10.259Z,17.97
2019-01-13T01:44:10.259Z,17.97
2019-01-13T01:45:10.408Z,17.98
2019-01-13T01:46:10.321Z,17.95
2019-01-13T01:47:10.406Z,17.98
2019-01-13T01:48:11.042Z,17.95
2019-01-13T01:49:10.199Z,17.95
2019-01-13T01:50:10.444Z,17.97
2019-01-13T01:51:10.246Z,17.95
2019-01-13T01:52:10.303Z,17.95
2019-01-13T01:53:10.543Z,17.94
2019-01-13T01:54:10.320Z,17.95
2019-01-13T01:55:10.373Z,17.94
2019-01-13T01:56:11.145Z,17.94
2019-01-13T01:57:10.344Z,17.93
2019-01-13T01:58:10.704Z,17.94
2019-01-13T01:59:10.233Z,17.93
2019-01-13T02:00:10.238Z,17.93
2019-01-13T02:01:10.530Z,17.93
2019-01-13T02:02:10.476Z,17.94
2019-01-13T02:03:10.360Z,17.91
2019-01-13T02:04:10.289Z,17.91
2019-01-13T02:05:10.923Z,17.91
2019-01-13T02:06:10.690Z,17.89
2019-01-13T02:07:10.500Z,17.89
2019-01-13T02:08:10.708Z,17.89
2019-01-13T02:09:10.639Z,17.88
2019-01-13T02:10:10.299Z,17.89
2019-01-13T02:11:10.968Z,17.88
2019-01-13T02:12:10.365Z,17.88
2019-01-13T02:13:11.155Z,17.88
2019-01-13T02:14:10.720Z,17.88
2019-01-13T02:15:10.170Z,17.87
2019-01-13T02:16:10.159Z,17.87
2019-01-13T02:17:10.407Z,17.87
2019-01-13T02:18:10.156Z,17.87
2019-01-13T02:19:10.312Z,17.87
2019-01-13T02:20:10.541Z,17.84
2019-01-13T02:21:10.395Z,17.87
2019-01-13T02:22:10.244Z,17.84
2019-01-13T02:23:10.634Z,17.82
2019-01-13T02:24:10.584Z,17.82
2019-01-13T02:25:10.470Z,17.84
2019-01-13T02:26:10.340Z,17.84
2019-01-13T02:27:10.343Z,17.82
2019-01-13T02:28:10.496Z,17.84
2019-01-13T02:29:10.607Z,17.84
2019-01-13T02:30:10.667Z,17.84
2019-01-13T02:31:10.766Z,17.84
2019-01-13T02:32:10.464Z,17.85
2019-01-13T02:33:10.343Z,17.81
2019-01-13T02:34:10.761Z,17.82
2019-01-13T02:35:10.136Z,17.8
2019-01-13T02:36:10.584Z,17.84
2019-01-13T02:37:10.156Z,17.78
2019-01-13T02:38:10.461Z,17.81
2019-01-13T02:39:10.518Z,17.81
2019-01-13T02:40:10.841Z,17.8
2019-01-13T02:41:10.890Z,17.82
2019-01-13T02:42:10.741Z,17.8
2019-01-13T02:43:10.461Z,17.81
2019-01-13T02:44:10.265Z,17.8
2019-01-13T02:45:10.280Z,17.78
2019-01-13T02:46:10.568Z,17.8
2019-01-13T02:47:11.450Z,17.78
2019-01-13T02:48:10.633Z,17.8
2019-01-13T02:49:10.166Z,17.8
2019-01-13T02:50:10.343Z,17.77
2019-01-13T02:51:10.620Z,17.78
2019-01-13T02:52:10.570Z,17.76
2019-01-13T02:53:10.585Z,17.77
2019-01-13T02:54:10.494Z,17.78
2019-01-13T02:55:10.419Z,17.76
2019-01-13T02:56:10.223Z,17.76
2019-01-13T02:57:10.313Z,17.74
2019-01-13T02:58:10.913Z,17.76
2019-01-13T02:59:10.722Z,17.78
2019-01-13T03:00:10.183Z,17.76
2019-01-13T03:01:10.241Z,17.76
2019-01-13T03:02:10.392Z,17.76
2019-01-13T03:03:10.458Z,17.74
2019-01-13T03:04:12.216Z,17.76
2019-01-13T03:05:10.463Z,17.73
2019-01-13T03:06:10.576Z,17.74
2019-01-13T03:07:10.476Z,17.73
2019-01-13T03:08:11.216Z,17.73
2019-01-13T03:09:10.334Z,17.73
2019-01-13T03:10:10.380Z,17.73
2019-01-13T03:11:10.101Z,17.71
2019-01-13T03:12:10.268Z,17.71
2019-01-13T03:13:10.432Z,17.71
2019-01-13T03:14:10.405Z,17.7
2019-01-13T03:15:10.240Z,17.73
2019-01-13T03:16:10.691Z,17.68
2019-01-13T03:17:10.437Z,17.68
2019-01-13T03:18:10.247Z,17.71
2019-01-13T03:19:10.416Z,17.7
2019-01-13T03:20:10.395Z,17.67
2019-01-13T03:21:10.406Z,17.7
2019-01-13T03:22:10.389Z,17.7
2019-01-13T03:23:10.339Z,17.7
2019-01-13T03:24:10.459Z,17.68
2019-01-13T03:25:12.537Z,17.66
2019-01-13T03:26:10.410Z,17.7
2019-01-13T03:27:10.346Z,17.68
2019-01-13T03:28:10.235Z,17.67
2019-01-13T03:29:10.465Z,17.67
2019-01-13T03:30:10.647Z,17.66
2019-01-13T03:31:13.346Z,17.68
2019-01-13T03:32:10.515Z,17.66
2019-01-13T03:33:10.774Z,17.64
2019-01-13T03:34:10.231Z,17.66
2019-01-13T03:35:10.579Z,17.67
2019-01-13T03:36:10.563Z,17.63
2019-01-13T03:37:10.093Z,17.64
2019-01-13T03:38:10.820Z,17.66
2019-01-13T03:39:12.223Z,17.63
2019-01-13T03:40:11.126Z,17.63
2019-01-13T03:41:10.352Z,17.64
2019-01-13T03:42:10.309Z,17.64
2019-01-13T03:43:11.534Z,17.63
2019-01-13T03:44:10.630Z,17.63
2019-01-13T03:45:10.440Z,17.64
2019-01-13T03:46:10.139Z,17.63
2019-01-13T03:47:10.408Z,17.63
2019-01-13T03:48:10.433Z,17.6
2019-01-13T03:49:10.310Z,17.59
2019-01-13T03:50:10.775Z,17.63
2019-01-13T03:51:10.912Z,17.61
2019-01-13T03:52:10.327Z,17.59
2019-01-13T03:53:10.219Z,17.61
2019-01-13T03:54:10.218Z,17.61
2019-01-13T03:55:10.308Z,17.6
2019-01-13T03:56:11.031Z,17.6
2019-01-13T03:57:10.418Z,17.61
2019-01-13T03:58:11.466Z,17.59
2019-01-13T03:59:10.242Z,17.59
2019-01-13T04:00:10.256Z,17.59
2019-01-13T04:01:19.016Z,17.57
2019-01-13T04:02:10.569Z,17.57
2019-01-13T04:03:10.135Z,17.6
2019-01-13T04:04:11.273Z,17.59
2019-01-13T04:05:10.407Z,17.57
2019-01-13T04:06:10.160Z,17.57
2019-01-13T04:07:10.276Z,17.57
2019-01-13T04:08:10.995Z,17.56
2019-01-13T04:09:10.540Z,17.53
2019-01-13T04:10:10.502Z,17.57
2019-01-13T04:11:10.452Z,17.56
2019-01-13T04:12:10.536Z,17.56
2019-01-13T04:13:10.318Z,17.54
2019-01-13T04:14:10.579Z,17.54
2019-01-13T04:15:10.656Z,17.56
2019-01-13T04:16:10.594Z,17.56
2019-01-13T04:17:10.306Z,17.56
2019-01-13T04:18:10.722Z,17.53
2019-01-13T04:19:10.268Z,17.54
2019-01-13T04:20:10.205Z,17.52
2019-01-13T04:21:10.576Z,17.56
2019-01-13T04:22:10.428Z,17.53
2019-01-13T04:23:10.144Z,17.53
2019-01-13T04:24:12.117Z,17.52
2019-01-13T04:25:10.123Z,17.53
2019-01-13T04:26:10.345Z,17.52
2019-01-13T04:27:10.280Z,17.53
2019-01-13T04:28:10.411Z,17.52
2019-01-13T04:29:10.448Z,17.5
2019-01-13T04:30:10.705Z,17.52
2019-01-13T04:31:10.912Z,17.53
2019-01-13T04:32:10.314Z,17.5
2019-01-13T04:33:10.412Z,17.52
2019-01-13T04:34:10.387Z,17.52
2019-01-13T04:35:12.192Z,17.5
2019-01-13T04:36:10.215Z,17.52
2019-01-13T04:37:11.329Z,17.5
2019-01-13T04:38:10.533Z,17.52
2019-01-13T04:39:10.274Z,17.5
2019-01-13T04:40:10.363Z,17.49
2019-01-13T04:41:10.496Z,17.52
2019-01-13T04:42:10.444Z,17.53
2019-01-13T04:43:10.343Z,17.52
2019-01-13T04:44:10.399Z,17.53
2019-01-13T04:45:10.452Z,17.52
2019-01-13T04:46:10.243Z,17.54
2019-01-13T04:47:10.191Z,17.52
2019-01-13T04:48:10.495Z,17.53
2019-01-13T04:49:10.604Z,17.53
2019-01-13T04:50:10.508Z,17.53
2019-01-13T04:51:10.167Z,17.54
2019-01-13T04:52:10.300Z,17.56
2019-01-13T04:53:10.243Z,17.56
2019-01-13T04:54:10.212Z,17.54
2019-01-13T04:55:10.572Z,17.56
2019-01-13T04:56:10.755Z,17.57
2019-01-13T04:57:10.214Z,17.57
2019-01-13T04:58:10.379Z,17.6
2019-01-13T04:59:10.246Z,17.63
2019-01-13T05:00:10.369Z,17.61
2019-01-13T05:01:10.229Z,17.63
2019-01-13T05:02:10.203Z,17.67
2019-01-13T05:03:10.358Z,17.68
2019-01-13T05:04:10.245Z,17.7
2019-01-13T05:05:10.028Z,17.73
2019-01-13T05:06:10.577Z,17.77
2019-01-13T05:07:10.259Z,17.78
2019-01-13T05:08:10.323Z,17.82
2019-01-13T05:09:10.082Z,17.84
2019-01-13T05:10:10.455Z,17.84
2019-01-13T05:11:10.337Z,17.87
2019-01-13T05:12:10.072Z,17.88
2019-01-13T05:13:10.312Z,17.91
2019-01-13T05:14:10.577Z,17.93
2019-01-13T05:15:10.581Z,17.94
2019-01-13T05:16:10.386Z,17.97
2019-01-13T05:17:10.365Z,18
2019-01-13T05:18:10.594Z,18
2019-01-13T05:19:10.306Z,18.01
2019-01-13T05:20:10.380Z,18.02
2019-01-13T05:21:10.808Z,18.04
2019-01-13T05:22:10.725Z,18.05
2019-01-13T05:23:10.193Z,18.08
2019-01-13T05:24:10.464Z,18.09
2019-01-13T05:25:10.237Z,18.12
2019-01-13T05:26:10.054Z,18.12
2019-01-13T05:27:10.181Z,18.13
2019-01-13T05:28:10.572Z,18.13
2019-01-13T05:29:10.268Z,18.13
2019-01-13T05:30:10.271Z,18.16
2019-01-13T05:31:10.313Z,18.18
2019-01-13T05:32:10.421Z,18.18
2019-01-13T05:33:10.196Z,18.22
2019-01-13T05:34:10.431Z,18.23
2019-01-13T05:35:10.215Z,18.25
2019-01-13T05:36:11.445Z,18.25
2019-01-13T05:37:10.404Z,18.28
2019-01-13T05:38:10.356Z,18.26
2019-01-13T05:39:10.983Z,18.3
2019-01-13T05:40:10.269Z,18.3
2019-01-13T05:41:10.585Z,18.33
2019-01-13T05:42:10.889Z,18.35
2019-01-13T05:43:10.164Z,18.36
2019-01-13T05:44:10.826Z,18.36
2019-01-13T05:45:10.551Z,18.36
2019-01-13T05:46:10.530Z,18.4
2019-01-13T05:47:10.474Z,18.4
2019-01-13T05:48:10.837Z,18.41
2019-01-13T05:49:10.112Z,18.43
2019-01-13T05:50:10.285Z,18.41
2019-01-13T05:51:10.513Z,18.44
2019-01-13T05:52:10.351Z,18.47
2019-01-13T05:53:10.610Z,18.49
2019-01-13T05:54:10.670Z,18.49
2019-01-13T05:55:10.576Z,18.5
2019-01-13T05:56:10.436Z,18.5
2019-01-13T05:57:10.467Z,18.53
2019-01-13T05:58:10.236Z,18.53
2019-01-13T05:59:10.479Z,18.57
2019-01-13T06:00:10.409Z,18.57
2019-01-13T06:01:10.226Z,18.6
2019-01-13T06:02:10.853Z,18.6
2019-01-13T06:03:10.271Z,18.62
2019-01-13T06:04:10.459Z,18.6
2019-01-13T06:05:10.411Z,18.63
2019-01-13T06:06:10.080Z,18.62
2019-01-13T06:07:10.926Z,18.66
2019-01-13T06:08:10.448Z,18.66
2019-01-13T06:09:10.070Z,18.66
2019-01-13T06:10:10.791Z,18.7
2019-01-13T06:11:10.127Z,18.67
2019-01-13T06:12:10.470Z,18.68
2019-01-13T06:13:10.876Z,18.73
2019-01-13T06:14:10.241Z,18.73
2019-01-13T06:15:10.230Z,18.75
2019-01-13T06:16:10.596Z,18.77
2019-01-13T06:17:10.171Z,18.75
2019-01-13T06:18:10.291Z,18.75
2019-01-13T06:19:11.146Z,18.77
2019-01-13T06:20:10.574Z,18.78
2019-01-13T06:21:11.169Z,18.81
2019-01-13T06:22:10.365Z,18.83
2019-01-13T06:23:10.238Z,18.84
2019-01-13T06:24:10.205Z,18.85
2019-01-13T06:25:10.266Z,18.84
2019-01-13T06:26:10.175Z,18.85
2019-01-13T06:27:10.223Z,18.87
2019-01-13T06:28:10.294Z,18.87
2019-01-13T06:29:10.911Z,18.88
2019-01-13T06:30:10.169Z,18.9
2019-01-13T06:31:10.434Z,18.88
2019-01-13T06:32:10.413Z,18.9
2019-01-13T06:33:10.122Z,18.92
2019-01-13T06:34:10.194Z,18.95
2019-01-13T06:35:10.257Z,18.95
2019-01-13T06:36:12.142Z,18.92
2019-01-13T06:37:10.398Z,18.95
2019-01-13T06:38:10.444Z,18.97
2019-01-13T06:39:10.043Z,18.95
2019-01-13T06:40:10.105Z,18.98
2019-01-13T06:41:10.601Z,18.98
2019-01-13T06:42:10.140Z,18.98
2019-01-13T06:43:10.316Z,18.98
2019-01-13T06:44:10.258Z,18.99
2019-01-13T06:45:10.150Z,18.98
2019-01-13T06:46:10.933Z,19.01
2019-01-13T06:47:10.317Z,19.02
2019-01-13T06:48:10.334Z,19.01
2019-01-13T06:49:10.247Z,19.03
2019-01-13T06:50:11.251Z,19.05
2019-01-13T06:51:10.098Z,19.03
2019-01-13T06:52:10.155Z,19.05
2019-01-13T06:53:10.258Z,19.08
2019-01-13T06:54:10.169Z,19.08
2019-01-13T06:55:10.422Z,19.08
2019-01-13T06:56:10.014Z,19.09
2019-01-13T06:57:10.108Z,19.09
2019-01-13T06:58:10.909Z,19.09
2019-01-13T06:59:10.238Z,19.09
2019-01-13T07:00:10.256Z,19.11
2019-01-13T07:01:10.424Z,19.13
2019-01-13T07:02:10.127Z,19.15
2019-01-13T07:03:10.881Z,19.15
2019-01-13T07:04:10.294Z,19.11
2019-01-13T07:05:10.414Z,19.02
2019-01-13T07:06:10.461Z,18.9
2019-01-13T07:07:10.574Z,18.78
2019-01-13T07:08:10.280Z,18.71
2019-01-13T07:09:10.440Z,18.7
2019-01-13T07:10:13.105Z,18.68
2019-01-13T07:11:10.514Z,18.73
2019-01-13T07:12:10.520Z,18.77
2019-01-13T07:13:10.203Z,18.8
2019-01-13T07:14:10.423Z,18.85
2019-01-13T07:15:10.268Z,18.9
2019-01-13T07:16:10.817Z,18.94
2019-01-13T07:17:10.439Z,18.94
2019-01-13T07:18:10.581Z,18.97
2019-01-13T07:19:11.143Z,19.01
2019-01-13T07:20:10.258Z,19.02
2019-01-13T07:21:10.384Z,19.05
2019-01-13T07:22:10.117Z,19.05
2019-01-13T07:23:10.229Z,19.06
2019-01-13T07:24:10.513Z,19.08
2019-01-13T07:25:10.114Z,19.12
2019-01-13T07:26:11.272Z,19.13
2019-01-13T07:27:12.197Z,19.15
2019-01-13T07:28:10.211Z,19.13
2019-01-13T07:29:11.189Z,19.13
2019-01-13T07:30:10.751Z,19.15
2019-01-13T07:31:10.328Z,19.15
2019-01-13T07:32:11.188Z,19.16
2019-01-13T07:33:10.322Z,19.16
2019-01-13T07:34:10.109Z,19.18
2019-01-13T07:35:10.375Z,19.18
2019-01-13T07:36:10.164Z,19.16
2019-01-13T07:37:10.777Z,19.16
2019-01-13T07:38:10.517Z,19.18
2019-01-13T07:39:10.387Z,19.18
2019-01-13T07:40:10.145Z,19.18
2019-01-13T07:41:10.746Z,19.18
2019-01-13T07:42:12.040Z,19.18
2019-01-13T07:43:10.266Z,19.19
2019-01-13T07:44:10.124Z,19.2
2019-01-13T07:45:10.115Z,19.18
2019-01-13T07:46:10.435Z,19.18
2019-01-13T07:47:10.168Z,19.19
2019-01-13T07:48:10.253Z,19.16
2019-01-13T07:49:10.354Z,19.16
2019-01-13T07:50:10.561Z,19.18
2019-01-13T07:51:10.453Z,19.16
2019-01-13T07:52:10.148Z,19.15
2019-01-13T07:53:10.214Z,19.15
2019-01-13T07:54:10.567Z,19.15
2019-01-13T07:55:10.160Z,19.16
2019-01-13T07:56:11.009Z,19.13
2019-01-13T07:57:10.267Z,19.16
2019-01-13T07:58:09.967Z,19.16
2019-01-13T07:59:10.169Z,19.15
2019-01-13T08:00:10.181Z,19.16
2019-01-13T08:01:10.162Z,19.15
2019-01-13T08:02:10.344Z,19.15
2019-01-13T08:03:10.187Z,19.16
2019-01-13T08:04:10.454Z,19.15
2019-01-13T08:05:10.464Z,19.13
2019-01-13T08:06:10.310Z,19.13
2019-01-13T08:07:09.996Z,19.15
2019-01-13T08:08:11.305Z,19.16
2019-01-13T08:09:10.493Z,19.13
2019-01-13T08:10:10.163Z,19.16
2019-01-13T08:11:10.044Z,19.15
2019-01-13T08:12:10.416Z,19.16
2019-01-13T08:13:10.043Z,19.18
2019-01-13T08:14:10.461Z,19.18
2019-01-13T08:15:11.371Z,19.18
2019-01-13T08:16:10.253Z,19.16
2019-01-13T08:17:10.505Z,19.18
2019-01-13T08:18:10.356Z,19.16
2019-01-13T08:19:10.457Z,19.19
2019-01-13T08:20:10.308Z,19.2
2019-01-13T08:21:10.503Z,19.22
2019-01-13T08:22:10.125Z,19.23
2019-01-13T08:23:10.371Z,19.22
2019-01-13T08:24:10.136Z,19.25
2019-01-13T08:25:10.313Z,19.23
2019-01-13T08:26:10.079Z,19.22
2019-01-13T08:27:10.133Z,19.25
2019-01-13T08:28:10.510Z,19.26
2019-01-13T08:29:10.150Z,19.25
2019-01-13T08:30:10.466Z,19.26
2019-01-13T08:31:10.061Z,19.27
2019-01-13T08:32:09.970Z,19.26
2019-01-13T08:33:10.179Z,19.26
2019-01-13T08:34:10.287Z,19.27
2019-01-13T08:35:10.195Z,19.27
2019-01-13T08:36:10.242Z,19.26
2019-01-13T08:37:10.331Z,19.29
2019-01-13T08:38:10.414Z,19.3
2019-01-13T08:39:10.206Z,19.3
2019-01-13T08:40:10.396Z,19.29
2019-01-13T08:41:10.095Z,19.29
2019-01-13T08:42:10.265Z,19.3
2019-01-13T08:43:10.343Z,19.32
2019-01-13T08:44:10.189Z,19.32
2019-01-13T08:45:10.532Z,19.3
2019-01-13T08:46:10.372Z,19.3
2019-01-13T08:47:10.471Z,19.33
2019-01-13T08:48:10.502Z,19.32
2019-01-13T08:49:10.494Z,19.33
2019-01-13T08:50:10.105Z,19.33
2019-01-13T08:51:10.385Z,19.35
2019-01-13T08:52:10.231Z,19.32
2019-01-13T08:53:10.278Z,19.33
2019-01-13T08:54:10.282Z,19.35
2019-01-13T08:55:11.212Z,19.35
2019-01-13T08:56:10.252Z,19.36
2019-01-13T08:57:10.337Z,19.36
2019-01-13T08:58:12.006Z,19.37
2019-01-13T08:59:10.202Z,19.33
2019-01-13T09:00:10.355Z,19.37
2019-01-13T09:01:10.374Z,19.37
2019-01-13T09:02:10.885Z,19.37
2019-01-13T09:03:10.495Z,19.35
2019-01-13T09:04:10.768Z,19.36
2019-01-13T09:05:10.620Z,19.37
2019-01-13T09:06:10.086Z,19.37
2019-01-13T09:07:10.718Z,19.36
2019-01-13T09:08:11.197Z,19.39
2019-01-13T09:09:10.217Z,19.39
2019-01-13T09:10:10.295Z,19.4
2019-01-13T09:11:10.327Z,19.4
2019-01-13T09:12:10.149Z,19.4
2019-01-13T09:13:11.246Z,19.39
2019-01-13T09:14:10.165Z,19.4
2019-01-13T09:15:10.197Z,19.4
2019-01-13T09:16:10.597Z,19.39
2019-01-13T09:17:10.080Z,19.4
2019-01-13T09:18:10.885Z,19.42
2019-01-13T09:19:10.115Z,19.42
2019-01-13T09:20:10.144Z,19.43
2019-01-13T09:21:12.157Z,19.4
2019-01-13T09:22:10.074Z,19.43
2019-01-13T09:23:10.322Z,19.42
2019-01-13T09:24:12.093Z,19.45
2019-01-13T09:25:10.402Z,19.43
2019-01-13T09:26:10.345Z,19.43
2019-01-13T09:27:10.470Z,19.46
2019-01-13T09:28:10.176Z,19.45
2019-01-13T09:29:11.283Z,19.45
2019-01-13T09:30:10.335Z,19.47
2019-01-13T09:31:10.159Z,19.47
2019-01-13T09:32:10.148Z,19.47
2019-01-13T09:33:10.604Z,19.46
2019-01-13T09:34:10.043Z,19.49
2019-01-13T09:35:10.130Z,19.47
2019-01-13T09:36:10.315Z,19.49
2019-01-13T09:37:10.042Z,19.49
2019-01-13T09:38:10.337Z,19.52
2019-01-13T09:39:10.204Z,19.52
2019-01-13T09:40:10.053Z,19.54
2019-01-13T09:41:10.247Z,19.54
2019-01-13T09:42:09.994Z,19.57
2019-01-13T09:43:12.003Z,19.58
2019-01-13T09:44:10.439Z,19.6
2019-01-13T09:45:11.076Z,19.61
2019-01-13T09:46:10.278Z,19.61
2019-01-13T09:47:10.314Z,19.61
2019-01-13T09:48:10.142Z,19.65
2019-01-13T09:49:11.441Z,19.65
2019-01-13T09:50:10.270Z,19.68
2019-01-13T09:51:10.236Z,19.7
2019-01-13T09:52:10.512Z,19.7
2019-01-13T09:53:10.476Z,19.7
2019-01-13T09:54:10.034Z,19.73
2019-01-13T09:55:10.121Z,19.73
2019-01-13T09:56:10.430Z,19.71
2019-01-13T09:57:10.437Z,19.74
2019-01-13T09:58:10.114Z,19.71
2019-01-13T09:59:10.329Z,19.74
2019-01-13T10:00:10.006Z,19.75
2019-01-13T10:01:10.372Z,19.74
2019-01-13T10:02:10.311Z,19.74
2019-01-13T10:03:10.422Z,19.74
2019-01-13T10:04:10.110Z,19.74
2019-01-13T10:05:10.553Z,19.74
2019-01-13T10:06:10.101Z,19.75
2019-01-13T10:07:10.254Z,19.78
2019-01-13T10:08:10.602Z,19.77
2019-01-13T10:09:10.065Z,19.78
2019-01-13T10:10:10.191Z,19.77
2019-01-13T10:11:10.195Z,19.75
2019-01-13T10:12:10.140Z,19.78
2019-01-13T10:13:10.254Z,19.8
2019-01-13T10:14:09.935Z,19.81
2019-01-13T10:15:10.164Z,19.82
2019-01-13T10:16:10.369Z,19.84
2019-01-13T10:17:10.438Z,19.82
2019-01-13T10:18:10.066Z,19.84
2019-01-13T10:19:10.105Z,19.84
2019-01-13T10:20:10.056Z,19.82
2019-01-13T10:21:10.127Z,19.85
2019-01-13T10:22:10.178Z,19.86
2019-01-13T10:23:10.034Z,19.88
2019-01-13T10:24:10.254Z,19.89
2019-01-13T10:25:10.090Z,19.88
2019-01-13T10:26:10.241Z,19.88
2019-01-13T10:27:10.109Z,19.89
2019-01-13T10:28:09.941Z,19.93
2019-01-13T10:29:10.172Z,19.91
2019-01-13T10:30:10.248Z,19.91
2019-01-13T10:31:10.289Z,19.96
2019-01-13T10:32:10.078Z,19.98
2019-01-13T10:33:10.245Z,19.96
2019-01-13T10:34:10.613Z,19.95
2019-01-13T10:35:09.965Z,19.98
2019-01-13T10:36:10.297Z,19.96
2019-01-13T10:37:09.958Z,19.99
2019-01-13T10:38:10.588Z,19.99
2019-01-13T10:39:10.443Z,19.99
2019-01-13T10:40:10.242Z,20.01
2019-01-13T10:41:10.105Z,20.05
2019-01-13T10:42:10.430Z,20.04
2019-01-13T10:43:10.764Z,20.04
2019-01-13T10:44:10.995Z,20.05
2019-01-13T10:45:10.576Z,20.05
2019-01-13T10:46:10.232Z,20.07
2019-01-13T10:47:10.184Z,20.04
2019-01-13T10:48:10.484Z,20.07
2019-01-13T10:49:11.307Z,20.08
2019-01-13T10:50:10.117Z,20.08
2019-01-13T10:51:10.349Z,20.07
2019-01-13T10:52:09.919Z,20.07
2019-01-13T10:52:59.011Z,20.15
2019-01-13T10:54:17.237Z,20.2
2019-01-13T10:55:16.965Z,20.25
2019-01-13T10:56:17.062Z,20.29
2019-01-13T10:57:17.228Z,20.33
2019-01-13T10:58:17.398Z,20.35
2019-01-13T10:59:17.342Z,20.37
2019-01-13T10:59:59.144Z,20.39
2019-01-13T11:00:59.658Z,20.42
2019-01-13T11:01:59.818Z,20.4
2019-01-13T11:03:03.472Z,20.43
2019-01-13T11:03:59.341Z,20.42
2019-01-13T11:05:00.289Z,20.42
2019-01-13T11:06:03.105Z,20.43
2019-01-13T11:07:00.587Z,20.4
2019-01-13T11:08:00.969Z,20.39
2019-01-13T11:09:00.654Z,20.42
2019-01-13T11:09:59.937Z,20.44
2019-01-13T11:11:02.351Z,20.43
2019-01-13T11:11:59.643Z,20.43
2019-01-13T11:12:59.443Z,20.46
2019-01-13T11:14:01.946Z,20.46
2019-01-13T11:14:39.493Z,20.5
2019-01-13T11:15:38.911Z,20.53
2019-01-13T11:16:41.687Z,20.53
2019-01-13T11:17:38.858Z,20.51
2019-01-13T11:18:38.960Z,20.48
2019-01-13T11:19:38.607Z,20.48
2019-01-13T11:20:39.082Z,20.47
2019-01-13T11:21:39.159Z,20.43
2019-01-13T11:22:38.866Z,20.44
2019-01-13T11:23:40.120Z,20.42
2019-01-13T11:24:38.869Z,20.43
2019-01-13T11:25:38.620Z,20.42
2019-01-13T11:26:38.499Z,20.39
2019-01-13T11:27:38.612Z,20.39
2019-01-13T11:28:39.007Z,20.37
2019-01-13T11:29:38.613Z,20.36
2019-01-13T11:30:39.019Z,20.37
2019-01-13T11:31:38.461Z,20.35
2019-01-13T11:32:38.854Z,20.36
2019-01-13T11:33:38.737Z,20.37
2019-01-13T11:34:38.443Z,20.35
2019-01-13T11:35:38.976Z,20.35
2019-01-13T11:36:38.787Z,20.33
2019-01-13T11:37:38.753Z,20.35
2019-01-13T11:38:38.785Z,20.35
2019-01-13T11:39:41.272Z,20.35
2019-01-13T11:40:39.689Z,20.35
2019-01-13T11:41:38.699Z,20.36
2019-01-13T11:42:38.701Z,20.35
2019-01-13T11:43:38.373Z,20.35
2019-01-13T11:44:38.848Z,20.36
2019-01-13T11:45:39.321Z,20.36
2019-01-13T11:46:38.486Z,20.35
2019-01-13T11:47:39.089Z,20.36
2019-01-13T11:48:39.185Z,20.37
2019-01-13T11:49:39.380Z,20.37
2019-01-13T11:50:39.145Z,20.35
2019-01-13T11:51:38.782Z,20.35
2019-01-13T11:52:38.835Z,20.35
2019-01-13T11:53:38.875Z,20.32
2019-01-13T11:54:40.623Z,20.32
2019-01-13T11:55:38.821Z,20.33
2019-01-13T11:56:38.542Z,20.33
2019-01-13T11:57:38.875Z,20.32
2019-01-13T11:58:38.835Z,20.33
2019-01-13T11:59:38.908Z,20.3
2019-01-13T12:00:38.918Z,20.33
2019-01-13T12:01:38.882Z,20.33
2019-01-13T12:02:38.559Z,20.32
2019-01-13T12:03:38.871Z,20.27
2019-01-13T12:04:39.017Z,20.32
2019-01-13T12:05:38.577Z,20.32
2019-01-13T12:06:39.097Z,20.32
2019-01-13T12:07:39.120Z,20.32
2019-01-13T12:08:39.881Z,20.3
2019-01-13T12:09:38.461Z,20.29
2019-01-13T12:10:38.597Z,20.32
2019-01-13T12:11:38.338Z,20.33
2019-01-13T12:12:38.432Z,20.32
2019-01-13T12:13:38.826Z,20.35
2019-01-13T12:14:38.874Z,20.33
2019-01-13T12:15:38.808Z,20.35
2019-01-13T12:16:39.106Z,20.33
2019-01-13T12:17:38.487Z,20.35
2019-01-13T12:18:41.597Z,20.36
2019-01-13T12:19:40.472Z,20.36
2019-01-13T12:20:39.255Z,20.36
2019-01-13T12:21:38.429Z,20.39
2019-01-13T12:22:38.518Z,20.39
2019-01-13T12:23:38.783Z,20.39
2019-01-13T12:24:38.756Z,20.4
2019-01-13T12:25:38.518Z,20.4
2019-01-13T12:26:38.879Z,20.39
2019-01-13T12:27:38.604Z,20.4
2019-01-13T12:28:38.453Z,20.39
2019-01-13T12:29:38.628Z,20.43
2019-01-13T12:30:38.634Z,20.43
2019-01-13T12:31:38.497Z,20.42
2019-01-13T12:32:38.612Z,20.42
2019-01-13T12:33:38.545Z,20.44
2019-01-13T12:34:38.670Z,20.44
2019-01-13T12:35:38.909Z,20.46
2019-01-13T12:36:38.619Z,20.46
2019-01-13T12:37:39.053Z,20.47
2019-01-13T12:38:39.774Z,20.46
2019-01-13T12:39:38.601Z,20.47
2019-01-13T12:40:39.177Z,20.47
2019-01-13T12:41:38.708Z,20.47
2019-01-13T12:42:38.442Z,20.47
2019-01-13T12:43:39.453Z,20.5
2019-01-13T12:44:38.800Z,20.47
2019-01-13T12:45:38.803Z,20.47
2019-01-13T12:46:39.137Z,20.5
2019-01-13T12:47:38.758Z,20.48
2019-01-13T12:48:38.510Z,20.46
2019-01-13T12:49:38.469Z,20.46
2019-01-13T12:50:39.332Z,20.47
2019-01-13T12:51:38.921Z,20.47
2019-01-13T12:52:38.817Z,20.46
2019-01-13T12:53:38.640Z,20.44
2019-01-13T12:54:38.637Z,20.47